aviador You're here:

KQKG Decoded Metar

in
Report Time2017-06-27 04:55:00
UTC Time2017-06-27 05:26:50
Flight Rules vfr VFR
WindCalm
Visibility9999 m
Phenomena:N/A
Clouds:N/A
Expected CloudBase > 2,400 ft AGL from Temp-Dew spread
CeilingNone
Temp17°C
Dew Point11°C (68% RH)
QNH1015 hPa
Raw Report
METAR KQKG 270455Z AUTO 00000KT 9999 CLR 17/11 A2997 RMK AO2 SLP095
WND DATA ESTMD T01720109 $=

Extra information for KQKG:More info

Social comments